sensor_id;sensor_type;location;lat;lon;timestamp;temperature;humidity
58309;DHT22;44117;57.142;24.826;2023-02-21T00:01:25;0.90;99.90
58309;DHT22;44117;57.142;24.826;2023-02-21T00:04:11;0.90;99.90
58309;DHT22;44117;57.142;24.826;2023-02-21T00:06:56;0.90;99.90
58309;DHT22;44117;57.142;24.826;2023-02-21T00:09:41;0.90;99.90
58309;DHT22;44117;57.142;24.826;2023-02-21T00:12:27;0.90;99.90
58309;DHT22;44117;57.142;24.826;2023-02-21T00:15:12;0.90;99.90
58309;DHT22;44117;57.142;24.826;2023-02-21T00:17:57;0.90;99.90
58309;DHT22;44117;57.142;24.826;2023-02-21T00:20:43;0.90;99.90
58309;DHT22;44117;57.142;24.826;2023-02-21T00:23:31;0.90;99.90
58309;DHT22;44117;57.142;24.826;2023-02-21T00:26:17;0.90;99.90
58309;DHT22;44117;57.142;24.826;2023-02-21T00:29:03;0.90;99.90
58309;DHT22;44117;57.142;24.826;2023-02-21T00:31:49;0.90;99.90
58309;DHT22;44117;57.142;24.826;2023-02-21T00:34:34;0.90;99.90
58309;DHT22;44117;57.142;24.826;2023-02-21T00:37:19;0.90;99.90
58309;DHT22;44117;57.142;24.826;2023-02-21T00:40:05;0.90;99.90
58309;DHT22;44117;57.142;24.826;2023-02-21T00:42:51;0.80;99.90
58309;DHT22;44117;57.142;24.826;2023-02-21T00:45:36;0.90;99.90
58309;DHT22;44117;57.142;24.826;2023-02-21T00:48:22;0.80;99.90
58309;DHT22;44117;57.142;24.826;2023-02-21T00:51:08;0.90;99.90
58309;DHT22;44117;57.142;24.826;2023-02-21T00:53:54;0.90;99.90
58309;DHT22;44117;57.142;24.826;2023-02-21T00:56:39;0.80;99.90
58309;DHT22;44117;57.142;24.826;2023-02-21T00:59:24;0.80;99.90
58309;DHT22;44117;57.142;24.826;2023-02-21T01:02:10;0.80;99.90
58309;DHT22;44117;57.142;24.826;2023-02-21T01:04:56;0.80;99.90
58309;DHT22;44117;57.142;24.826;2023-02-21T01:07:41;0.90;99.90
58309;DHT22;44117;57.142;24.826;2023-02-21T01:10:27;0.80;99.90
58309;DHT22;44117;57.142;24.826;2023-02-21T01:13:12;0.80;99.90
58309;DHT22;44117;57.142;24.826;2023-02-21T01:15:58;0.80;99.90
58309;DHT22;44117;57.142;24.826;2023-02-21T01:18:43;0.90;99.90
58309;DHT22;44117;57.142;24.826;2023-02-21T01:21:29;0.80;99.90
58309;DHT22;44117;57.142;24.826;2023-02-21T01:24:14;0.90;99.90
58309;DHT22;44117;57.142;24.826;2023-02-21T01:27:00;0.90;99.90
58309;DHT22;44117;57.142;24.826;2023-02-21T01:29:46;0.90;99.90
58309;DHT22;44117;57.142;24.826;2023-02-21T01:32:32;0.90;99.90
58309;DHT22;44117;57.142;24.826;2023-02-21T01:35:17;0.90;99.90
58309;DHT22;44117;57.142;24.826;2023-02-21T01:38:03;0.90;99.90
58309;DHT22;44117;57.142;24.826;2023-02-21T01:40:48;0.90;99.90
58309;DHT22;44117;57.142;24.826;2023-02-21T01:43:34;1.00;99.90
58309;DHT22;44117;57.142;24.826;2023-02-21T01:46:19;1.00;99.90
58309;DHT22;44117;57.142;24.826;2023-02-21T01:49:08;1.00;99.90
58309;DHT22;44117;57.142;24.826;2023-02-21T01:51:55;1.00;99.90
58309;DHT22;44117;57.142;24.826;2023-02-21T01:54:42;0.90;99.90
58309;DHT22;44117;57.142;24.826;2023-02-21T01:57:29;0.90;99.90
58309;DHT22;44117;57.142;24.826;2023-02-21T02:00:14;0.90;99.90
58309;DHT22;44117;57.142;24.826;2023-02-21T02:03:07;0.90;99.90
58309;DHT22;44117;57.142;24.826;2023-02-21T02:05:58;0.90;99.90
58309;DHT22;44117;57.142;24.826;2023-02-21T02:08:44;0.90;99.90
58309;DHT22;44117;57.142;24.826;2023-02-21T02:32:37;0.90;99.90
58309;DHT22;44117;57.142;24.826;2023-02-21T02:35:08;0.90;99.90
58309;DHT22;44117;57.142;24.826;2023-02-21T02:40:19;0.90;99.90
58309;DHT22;44117;57.142;24.826;2023-02-21T02:42:59;1.00;99.90
58309;DHT22;44117;57.142;24.826;2023-02-21T02:45:41;1.00;99.90
58309;DHT22;44117;57.142;24.826;2023-02-21T02:48:15;1.00;99.90
58309;DHT22;44117;57.142;24.826;2023-02-21T02:50:45;0.90;99.90
58309;DHT22;44117;57.142;24.826;2023-02-21T02:53:14;0.90;99.90
58309;DHT22;44117;57.142;24.826;2023-02-21T02:55:43;0.90;99.90
58309;DHT22;44117;57.142;24.826;2023-02-21T02:58:11;1.00;99.90
58309;DHT22;44117;57.142;24.826;2023-02-21T03:00:40;0.90;99.90
58309;DHT22;44117;57.142;24.826;2023-02-21T03:08:13;0.80;99.90
58309;DHT22;44117;57.142;24.826;2023-02-21T03:11:03;0.90;99.90
58309;DHT22;44117;57.142;24.826;2023-02-21T03:16:03;0.90;99.90
58309;DHT22;44117;57.142;24.826;2023-02-21T03:18:43;0.80;99.90
58309;DHT22;44117;57.142;24.826;2023-02-21T03:21:14;0.80;99.90
58309;DHT22;44117;57.142;24.826;2023-02-21T03:23:42;0.80;99.90
58309;DHT22;44117;57.142;24.826;2023-02-21T03:26:10;0.80;99.90
58309;DHT22;44117;57.142;24.826;2023-02-21T03:28:39;0.80;99.90
58309;DHT22;44117;57.142;24.826;2023-02-21T03:31:07;0.80;99.90
58309;DHT22;44117;57.142;24.826;2023-02-21T03:33:34;0.70;99.90
58309;DHT22;44117;57.142;24.826;2023-02-21T03:36:04;0.70;99.90
58309;DHT22;44117;57.142;24.826;2023-02-21T03:38:32;0.70;99.90
58309;DHT22;44117;57.142;24.826;2023-02-21T03:41:00;0.60;99.90
58309;DHT22;44117;57.142;24.826;2023-02-21T03:43:27;0.60;99.90
58309;DHT22;44117;57.142;24.826;2023-02-21T03:45:54;0.60;99.90
58309;DHT22;44117;57.142;24.826;2023-02-21T03:48:21;0.60;99.90
58309;DHT22;44117;57.142;24.826;2023-02-21T03:50:58;0.60;99.90
58309;DHT22;44117;57.142;24.826;2023-02-21T03:53:25;0.60;99.90
58309;DHT22;44117;57.142;24.826;2023-02-21T03:55:52;0.60;99.90
58309;DHT22;44117;57.142;24.826;2023-02-21T03:58:19;0.50;99.90
58309;DHT22;44117;57.142;24.826;2023-02-21T04:00:46;0.50;99.90
58309;DHT22;44117;57.142;24.826;2023-02-21T04:03:13;0.50;99.90
58309;DHT22;44117;57.142;24.826;2023-02-21T04:05:40;0.50;99.90
58309;DHT22;44117;57.142;24.826;2023-02-21T04:08:08;0.50;99.90
58309;DHT22;44117;57.142;24.826;2023-02-21T04:10:35;0.50;99.90
58309;DHT22;44117;57.142;24.826;2023-02-21T04:13:16;0.50;99.90
58309;DHT22;44117;57.142;24.826;2023-02-21T04:15:45;0.50;99.90
58309;DHT22;44117;57.142;24.826;2023-02-21T04:18:12;0.50;99.90
58309;DHT22;44117;57.142;24.826;2023-02-21T04:20:39;0.50;99.90
58309;DHT22;44117;57.142;24.826;2023-02-21T04:23:06;0.40;99.90
58309;DHT22;44117;57.142;24.826;2023-02-21T04:25:33;0.40;99.90
58309;DHT22;44117;57.142;24.826;2023-02-21T04:28:00;0.30;99.90
58309;DHT22;44117;57.142;24.826;2023-02-21T04:30:27;0.30;99.90
58309;DHT22;44117;57.142;24.826;2023-02-21T04:32:54;0.20;99.90
58309;DHT22;44117;57.142;24.826;2023-02-21T04:35:21;0.20;99.90
58309;DHT22;44117;57.142;24.826;2023-02-21T04:37:48;0.10;99.90
58309;DHT22;44117;57.142;24.826;2023-02-21T04:40:15;0.00;99.90
58309;DHT22;44117;57.142;24.826;2023-02-21T04:42:42;0.00;99.90
58309;DHT22;44117;57.142;24.826;2023-02-21T04:45:09;-0.10;99.90
58309;DHT22;44117;57.142;24.826;2023-02-21T04:47:36;-0.10;99.90
58309;DHT22;44117;57.142;24.826;2023-02-21T04:50:03;-0.20;99.90
58309;DHT22;44117;57.142;24.826;2023-02-21T04:52:31;-0.30;99.90
58309;DHT22;44117;57.142;24.826;2023-02-21T04:54:58;-0.30;99.90
58309;DHT22;44117;57.142;24.826;2023-02-21T04:57:25;-0.30;99.90
58309;DHT22;44117;57.142;24.826;2023-02-21T04:59:56;-0.40;99.90
58309;DHT22;44117;57.142;24.826;2023-02-21T05:02:24;-0.40;99.90
58309;DHT22;44117;57.142;24.826;2023-02-21T05:04:51;-0.50;99.90
58309;DHT22;44117;57.142;24.826;2023-02-21T05:07:18;-0.50;99.90
58309;DHT22;44117;57.142;24.826;2023-02-21T05:09:45;-0.50;99.90
58309;DHT22;44117;57.142;24.826;2023-02-21T05:12:12;-0.60;99.90
58309;DHT22;44117;57.142;24.826;2023-02-21T05:14:39;-0.60;99.90
58309;DHT22;44117;57.142;24.826;2023-02-21T05:17:07;-0.70;99.90
58309;DHT22;44117;57.142;24.826;2023-02-21T05:19:35;-0.70;99.90
58309;DHT22;44117;57.142;24.826;2023-02-21T05:22:02;-0.70;99.90
58309;DHT22;44117;57.142;24.826;2023-02-21T05:24:32;-0.80;99.90
58309;DHT22;44117;57.142;24.826;2023-02-21T05:26:59;-0.80;99.90
58309;DHT22;44117;57.142;24.826;2023-02-21T05:29:27;-0.80;99.90
58309;DHT22;44117;57.142;24.826;2023-02-21T05:31:54;-0.90;99.90
58309;DHT22;44117;57.142;24.826;2023-02-21T05:34:21;-0.90;99.90
58309;DHT22;44117;57.142;24.826;2023-02-21T05:36:48;-0.90;99.90
58309;DHT22;44117;57.142;24.826;2023-02-21T05:39:15;-1.00;99.90
58309;DHT22;44117;57.142;24.826;2023-02-21T05:41:46;-1.00;99.90
58309;DHT22;44117;57.142;24.826;2023-02-21T05:44:13;-1.10;99.90
58309;DHT22;44117;57.142;24.826;2023-02-21T05:46:41;-1.10;99.90
58309;DHT22;44117;57.142;24.826;2023-02-21T05:49:08;-1.10;99.90
58309;DHT22;44117;57.142;24.826;2023-02-21T05:51:35;-1.20;99.90
58309;DHT22;44117;57.142;24.826;2023-02-21T05:54:03;-1.20;99.90
58309;DHT22;44117;57.142;24.826;2023-02-21T05:56:36;-1.20;99.90
58309;DHT22;44117;57.142;24.826;2023-02-21T05:59:03;-1.20;99.90
58309;DHT22;44117;57.142;24.826;2023-02-21T06:01:31;-1.30;99.90
58309;DHT22;44117;57.142;24.826;2023-02-21T06:03:58;-1.40;99.90
58309;DHT22;44117;57.142;24.826;2023-02-21T06:06:25;-1.40;99.90
58309;DHT22;44117;57.142;24.826;2023-02-21T06:08:52;-1.40;99.90
58309;DHT22;44117;57.142;24.826;2023-02-21T06:11:24;-1.40;99.90
58309;DHT22;44117;57.142;24.826;2023-02-21T06:13:53;-1.40;99.90
58309;DHT22;44117;57.142;24.826;2023-02-21T06:16:20;-1.40;99.90
58309;DHT22;44117;57.142;24.826;2023-02-21T06:18:49;-1.40;99.90
58309;DHT22;44117;57.142;24.826;2023-02-21T06:21:16;-1.40;99.90
58309;DHT22;44117;57.142;24.826;2023-02-21T06:23:43;-1.40;99.90
58309;DHT22;44117;57.142;24.826;2023-02-21T06:26:11;-1.40;99.90
58309;DHT22;44117;57.142;24.826;2023-02-21T06:28:38;-1.40;99.90
58309;DHT22;44117;57.142;24.826;2023-02-21T06:31:05;-1.50;99.90
58309;DHT22;44117;57.142;24.826;2023-02-21T06:33:32;-1.40;99.90
58309;DHT22;44117;57.142;24.826;2023-02-21T06:36:06;-1.40;99.90
58309;DHT22;44117;57.142;24.826;2023-02-21T06:38:33;-1.40;99.90
58309;DHT22;44117;57.142;24.826;2023-02-21T06:41:04;-1.40;99.90
58309;DHT22;44117;57.142;24.826;2023-02-21T06:43:31;-1.40;99.90
58309;DHT22;44117;57.142;24.826;2023-02-21T06:45:58;-1.40;99.90
58309;DHT22;44117;57.142;24.826;2023-02-21T06:48:25;-1.40;99.90
58309;DHT22;44117;57.142;24.826;2023-02-21T06:50:53;-1.40;99.90
58309;DHT22;44117;57.142;24.826;2023-02-21T06:53:20;-1.50;99.90
58309;DHT22;44117;57.142;24.826;2023-02-21T06:55:47;-1.40;99.90
58309;DHT22;44117;57.142;24.826;2023-02-21T06:58:14;-1.30;99.90
58309;DHT22;44117;57.142;24.826;2023-02-21T07:00:41;-1.40;99.90
58309;DHT22;44117;57.142;24.826;2023-02-21T07:03:08;-1.40;99.90
58309;DHT22;44117;57.142;24.826;2023-02-21T07:05:35;-1.40;99.90
58309;DHT22;44117;57.142;24.826;2023-02-21T07:08:04;-1.40;99.90
58309;DHT22;44117;57.142;24.826;2023-02-21T07:10:31;-1.30;99.90
58309;DHT22;44117;57.142;24.826;2023-02-21T07:12:58;-1.30;99.90
58309;DHT22;44117;57.142;24.826;2023-02-21T07:15:25;-1.30;99.90
58309;DHT22;44117;57.142;24.826;2023-02-21T07:17:52;-1.40;99.90
58309;DHT22;44117;57.142;24.826;2023-02-21T07:20:20;-1.30;99.90
58309;DHT22;44117;57.142;24.826;2023-02-21T07:22:47;-1.40;99.90
58309;DHT22;44117;57.142;24.826;2023-02-21T07:25:14;-1.40;99.90
58309;DHT22;44117;57.142;24.826;2023-02-21T07:27:42;-1.40;99.90
58309;DHT22;44117;57.142;24.826;2023-02-21T07:30:09;-1.50;99.90
58309;DHT22;44117;57.142;24.826;2023-02-21T07:32:37;-1.60;99.90
58309;DHT22;44117;57.142;24.826;2023-02-21T07:35:04;-1.50;99.90
58309;DHT22;44117;57.142;24.826;2023-02-21T07:37:31;-1.50;99.90
58309;DHT22;44117;57.142;24.826;2023-02-21T07:39:58;-1.60;99.90
58309;DHT22;44117;57.142;24.826;2023-02-21T07:42:25;-1.70;99.90
58309;DHT22;44117;57.142;24.826;2023-02-21T07:44:54;-1.60;99.90
58309;DHT22;44117;57.142;24.826;2023-02-21T07:47:21;-1.50;99.90
58309;DHT22;44117;57.142;24.826;2023-02-21T07:49:48;-1.60;99.90
58309;DHT22;44117;57.142;24.826;2023-02-21T07:52:15;-1.60;99.90
58309;DHT22;44117;57.142;24.826;2023-02-21T07:54:42;-1.50;99.90
58309;DHT22;44117;57.142;24.826;2023-02-21T07:57:09;-1.50;99.90
58309;DHT22;44117;57.142;24.826;2023-02-21T07:59:36;-1.50;99.90
58309;DHT22;44117;57.142;24.826;2023-02-21T08:02:03;-1.50;99.90
58309;DHT22;44117;57.142;24.826;2023-02-21T08:04:30;-1.60;99.90
58309;DHT22;44117;57.142;24.826;2023-02-21T08:06:58;-1.50;99.90
58309;DHT22;44117;57.142;24.826;2023-02-21T08:09:26;-1.50;99.90
58309;DHT22;44117;57.142;24.826;2023-02-21T08:11:53;-1.50;99.90
58309;DHT22;44117;57.142;24.826;2023-02-21T08:14:20;-1.40;99.90
58309;DHT22;44117;57.142;24.826;2023-02-21T08:16:47;-1.30;99.90
58309;DHT22;44117;57.142;24.826;2023-02-21T08:19:13;-1.40;99.90
58309;DHT22;44117;57.142;24.826;2023-02-21T08:21:44;-1.40;99.90
58309;DHT22;44117;57.142;24.826;2023-02-21T08:24:12;-1.30;99.90
58309;DHT22;44117;57.142;24.826;2023-02-21T08:26:39;-1.30;99.90
58309;DHT22;44117;57.142;24.826;2023-02-21T08:29:07;-1.20;99.90
58309;DHT22;44117;57.142;24.826;2023-02-21T08:31:35;-1.20;99.90
58309;DHT22;44117;57.142;24.826;2023-02-21T08:34:02;-1.20;99.90
58309;DHT22;44117;57.142;24.826;2023-02-21T08:36:34;-1.20;99.90
58309;DHT22;44117;57.142;24.826;2023-02-21T08:39:02;-1.20;99.90
58309;DHT22;44117;57.142;24.826;2023-02-21T08:41:39;-1.30;99.90
58309;DHT22;44117;57.142;24.826;2023-02-21T08:44:08;-1.40;99.90
58309;DHT22;44117;57.142;24.826;2023-02-21T08:46:35;-1.40;99.90
58309;DHT22;44117;57.142;24.826;2023-02-21T08:49:05;-1.40;99.90
58309;DHT22;44117;57.142;24.826;2023-02-21T08:51:32;-1.40;99.90
58309;DHT22;44117;57.142;24.826;2023-02-21T08:53:59;-1.20;99.90
58309;DHT22;44117;57.142;24.826;2023-02-21T08:56:27;-1.10;99.90
58309;DHT22;44117;57.142;24.826;2023-02-21T08:58:54;-1.00;99.90
58309;DHT22;44117;57.142;24.826;2023-02-21T09:01:22;-1.10;99.90
58309;DHT22;44117;57.142;24.826;2023-02-21T09:03:49;-1.10;99.90
58309;DHT22;44117;57.142;24.826;2023-02-21T09:06:16;-1.00;99.90
58309;DHT22;44117;57.142;24.826;2023-02-21T09:08:43;-1.20;99.90
58309;DHT22;44117;57.142;24.826;2023-02-21T09:11:10;-1.10;99.90
58309;DHT22;44117;57.142;24.826;2023-02-21T09:13:37;-1.20;99.90
58309;DHT22;44117;57.142;24.826;2023-02-21T09:16:04;-1.10;99.90
58309;DHT22;44117;57.142;24.826;2023-02-21T09:18:32;-1.00;99.90
58309;DHT22;44117;57.142;24.826;2023-02-21T09:20:59;-1.00;99.90
58309;DHT22;44117;57.142;24.826;2023-02-21T09:23:27;-1.00;99.90
58309;DHT22;44117;57.142;24.826;2023-02-21T09:25:54;-1.10;99.90
58309;DHT22;44117;57.142;24.826;2023-02-21T09:28:22;-1.00;99.90
58309;DHT22;44117;57.142;24.826;2023-02-21T09:30:49;-1.10;99.90
58309;DHT22;44117;57.142;24.826;2023-02-21T09:33:16;-1.10;99.90
58309;DHT22;44117;57.142;24.826;2023-02-21T09:35:43;-1.20;99.90
58309;DHT22;44117;57.142;24.826;2023-02-21T09:38:10;-1.10;99.90
58309;DHT22;44117;57.142;24.826;2023-02-21T09:40:52;-1.10;99.90
58309;DHT22;44117;57.142;24.826;2023-02-21T09:43:30;-1.00;99.90
58309;DHT22;44117;57.142;24.826;2023-02-21T09:46:17;-1.00;99.90
58309;DHT22;44117;57.142;24.826;2023-02-21T09:48:44;-0.90;99.90
58309;DHT22;44117;57.142;24.826;2023-02-21T09:51:12;-0.90;99.90
58309;DHT22;44117;57.142;24.826;2023-02-21T09:53:43;-0.90;99.90
58309;DHT22;44117;57.142;24.826;2023-02-21T09:56:13;-0.80;99.90
58309;DHT22;44117;57.142;24.826;2023-02-21T09:58:44;-0.60;99.90
58309;DHT22;44117;57.142;24.826;2023-02-21T10:04:06;-0.50;99.90
58309;DHT22;44117;57.142;24.826;2023-02-21T10:17:25;-0.30;99.90
58309;DHT22;44117;57.142;24.826;2023-02-21T10:19:53;-0.40;99.90
58309;DHT22;44117;57.142;24.826;2023-02-21T10:22:22;-0.40;99.90
58309;DHT22;44117;57.142;24.826;2023-02-21T10:24:50;-0.30;99.90
58309;DHT22;44117;57.142;24.826;2023-02-21T10:27:19;0.10;99.90
58309;DHT22;44117;57.142;24.826;2023-02-21T10:29:59;0.40;99.90
58309;DHT22;44117;57.142;24.826;2023-02-21T10:32:26;0.50;99.90
58309;DHT22;44117;57.142;24.826;2023-02-21T10:34:54;0.80;99.90
58309;DHT22;44117;57.142;24.826;2023-02-21T10:42:54;0.40;99.90
58309;DHT22;44117;57.142;24.826;2023-02-21T10:45:23;0.20;99.90
58309;DHT22;44117;57.142;24.826;2023-02-21T10:48:00;0.20;99.90
58309;DHT22;44117;57.142;24.826;2023-02-21T10:50:38;0.30;99.90
58309;DHT22;44117;57.142;24.826;2023-02-21T10:53:06;0.50;99.90
58309;DHT22;44117;57.142;24.826;2023-02-21T10:55:33;0.40;99.90
58309;DHT22;44117;57.142;24.826;2023-02-21T10:58:08;0.30;99.90
58309;DHT22;44117;57.142;24.826;2023-02-21T11:00:37;0.10;99.90
58309;DHT22;44117;57.142;24.826;2023-02-21T11:03:06;0.10;99.90
58309;DHT22;44117;57.142;24.826;2023-02-21T11:05:38;-0.10;99.90
58309;DHT22;44117;57.142;24.826;2023-02-21T11:08:05;-0.20;99.90
58309;DHT22;44117;57.142;24.826;2023-02-21T11:10:34;-0.30;99.90
58309;DHT22;44117;57.142;24.826;2023-02-21T11:15:29;-0.30;99.90
58309;DHT22;44117;57.142;24.826;2023-02-21T11:20:38;-0.30;99.90
58309;DHT22;44117;57.142;24.826;2023-02-21T11:23:28;-0.30;99.90
58309;DHT22;44117;57.142;24.826;2023-02-21T11:26:04;-0.30;99.90
58309;DHT22;44117;57.142;24.826;2023-02-21T11:28:39;-0.20;99.90
58309;DHT22;44117;57.142;24.826;2023-02-21T11:31:13;-0.30;99.90
58309;DHT22;44117;57.142;24.826;2023-02-21T11:33:50;-0.40;99.90
58309;DHT22;44117;57.142;24.826;2023-02-21T11:36:18;-0.40;99.90
58309;DHT22;44117;57.142;24.826;2023-02-21T11:41:30;-0.20;99.90
58309;DHT22;44117;57.142;24.826;2023-02-21T11:44:01;-0.30;99.90
58309;DHT22;44117;57.142;24.826;2023-02-21T11:46:33;-0.60;99.90
58309;DHT22;44117;57.142;24.826;2023-02-21T11:51:32;-0.90;99.90
58309;DHT22;44117;57.142;24.826;2023-02-21T11:53:59;-0.80;99.90
58309;DHT22;44117;57.142;24.826;2023-02-21T12:02:06;-0.50;99.90
58309;DHT22;44117;57.142;24.826;2023-02-21T12:07:03;-0.80;99.90
58309;DHT22;44117;57.142;24.826;2023-02-21T12:09:46;-0.80;99.90
58309;DHT22;44117;57.142;24.826;2023-02-21T12:12:21;-0.70;99.90
58309;DHT22;44117;57.142;24.826;2023-02-21T12:27:55;-0.90;99.90
58309;DHT22;44117;57.142;24.826;2023-02-21T12:33:07;-1.00;99.90
58309;DHT22;44117;57.142;24.826;2023-02-21T12:49:13;-1.10;99.90
58309;DHT22;44117;57.142;24.826;2023-02-21T12:51:41;-1.00;99.90
58309;DHT22;44117;57.142;24.826;2023-02-21T12:54:14;-1.00;99.90
58309;DHT22;44117;57.142;24.826;2023-02-21T12:56:51;-1.00;99.90
58309;DHT22;44117;57.142;24.826;2023-02-21T13:01:57;-1.00;99.90
58309;DHT22;44117;57.142;24.826;2023-02-21T13:04:31;-1.00;99.90
58309;DHT22;44117;57.142;24.826;2023-02-21T13:07:05;-0.90;99.90
58309;DHT22;44117;57.142;24.826;2023-02-21T13:09:38;-0.80;99.90
58309;DHT22;44117;57.142;24.826;2023-02-21T13:14:53;-0.60;99.90
58309;DHT22;44117;57.142;24.826;2023-02-21T13:17:22;-0.80;99.90
58309;DHT22;44117;57.142;24.826;2023-02-21T13:19:52;-0.70;99.90
58309;DHT22;44117;57.142;24.826;2023-02-21T13:25:28;-0.90;99.90
58309;DHT22;44117;57.142;24.826;2023-02-21T13:31:03;-1.10;99.90
58309;DHT22;44117;57.142;24.826;2023-02-21T13:33:43;-1.10;99.90
58309;DHT22;44117;57.142;24.826;2023-02-21T13:36:29;-1.10;99.90
58309;DHT22;44117;57.142;24.826;2023-02-21T13:39:09;-1.00;99.90
58309;DHT22;44117;57.142;24.826;2023-02-21T13:41:44;-0.90;99.90
58309;DHT22;44117;57.142;24.826;2023-02-21T13:44:16;-0.80;99.90
58309;DHT22;44117;57.142;24.826;2023-02-21T13:57:30;-1.00;99.90
58309;DHT22;44117;57.142;24.826;2023-02-21T13:59:57;-1.10;99.90
58309;DHT22;44117;57.142;24.826;2023-02-21T14:02:28;-1.10;99.90
58309;DHT22;44117;57.142;24.826;2023-02-21T14:05:00;-1.10;99.90
58309;DHT22;44117;57.142;24.826;2023-02-21T14:07:44;-1.20;99.90
58309;DHT22;44117;57.142;24.826;2023-02-21T14:10:13;-1.20;99.90
58309;DHT22;44117;57.142;24.826;2023-02-21T14:12:43;-1.20;99.90
58309;DHT22;44117;57.142;24.826;2023-02-21T14:15:11;-1.20;99.90
58309;DHT22;44117;57.142;24.826;2023-02-21T14:17:38;-1.30;99.90
58309;DHT22;44117;57.142;24.826;2023-02-21T14:20:05;-1.30;99.90
58309;DHT22;44117;57.142;24.826;2023-02-21T14:22:40;-1.30;99.90
58309;DHT22;44117;57.142;24.826;2023-02-21T14:25:14;-1.40;99.90
58309;DHT22;44117;57.142;24.826;2023-02-21T14:27:42;-1.50;99.90
58309;DHT22;44117;57.142;24.826;2023-02-21T14:32:46;-1.50;99.90
58309;DHT22;44117;57.142;24.826;2023-02-21T14:38:03;-1.60;99.90
58309;DHT22;44117;57.142;24.826;2023-02-21T14:45:58;-1.50;99.90
58309;DHT22;44117;57.142;24.826;2023-02-21T14:51:17;-1.50;99.90
58309;DHT22;44117;57.142;24.826;2023-02-21T14:58:56;-1.50;99.90
58309;DHT22;44117;57.142;24.826;2023-02-21T15:01:44;-1.60;99.90
58309;DHT22;44117;57.142;24.826;2023-02-21T15:04:18;-1.50;99.90
58309;DHT22;44117;57.142;24.826;2023-02-21T15:09:32;-1.50;99.90
58309;DHT22;44117;57.142;24.826;2023-02-21T15:11:59;-1.50;99.90
58309;DHT22;44117;57.142;24.826;2023-02-21T15:14:28;-1.50;99.90
58309;DHT22;44117;57.142;24.826;2023-02-21T15:17:00;-1.70;99.90
58309;DHT22;44117;57.142;24.826;2023-02-21T15:19:28;-1.80;99.90
58309;DHT22;44117;57.142;24.826;2023-02-21T15:24:38;-1.70;99.90
58309;DHT22;44117;57.142;24.826;2023-02-21T15:27:09;-1.80;99.90
58309;DHT22;44117;57.142;24.826;2023-02-21T15:29:37;-1.80;99.90
58309;DHT22;44117;57.142;24.826;2023-02-21T15:32:04;-1.80;99.90
58309;DHT22;44117;57.142;24.826;2023-02-21T15:37:11;-1.90;99.90
58309;DHT22;44117;57.142;24.826;2023-02-21T15:39:41;-1.90;99.90
58309;DHT22;44117;57.142;24.826;2023-02-21T15:42:10;-1.90;99.90
58309;DHT22;44117;57.142;24.826;2023-02-21T15:44:43;-1.90;99.90
58309;DHT22;44117;57.142;24.826;2023-02-21T15:47:13;-1.90;99.90
58309;DHT22;44117;57.142;24.826;2023-02-21T15:49:43;-1.90;99.90
58309;DHT22;44117;57.142;24.826;2023-02-21T15:55:12;-1.90;99.90
58309;DHT22;44117;57.142;24.826;2023-02-21T15:57:39;-2.00;99.90
58309;DHT22;44117;57.142;24.826;2023-02-21T16:00:27;-2.00;99.90
58309;DHT22;44117;57.142;24.826;2023-02-21T16:05:40;-2.00;99.90
58309;DHT22;44117;57.142;24.826;2023-02-21T16:08:10;-2.00;99.90
58309;DHT22;44117;57.142;24.826;2023-02-21T16:10:39;-2.00;99.90
58309;DHT22;44117;57.142;24.826;2023-02-21T16:13:07;-2.00;99.90
58309;DHT22;44117;57.142;24.826;2023-02-21T16:15:34;-2.00;99.90
58309;DHT22;44117;57.142;24.826;2023-02-21T16:18:04;-2.00;99.90
58309;DHT22;44117;57.142;24.826;2023-02-21T16:25:55;-2.00;99.90
58309;DHT22;44117;57.142;24.826;2023-02-21T16:28:22;-2.00;99.90
58309;DHT22;44117;57.142;24.826;2023-02-21T16:30:50;-2.00;99.90
58309;DHT22;44117;57.142;24.826;2023-02-21T16:33:17;-2.10;99.90
58309;DHT22;44117;57.142;24.826;2023-02-21T16:35:44;-2.20;99.90
58309;DHT22;44117;57.142;24.826;2023-02-21T16:38:13;-2.30;99.90
58309;DHT22;44117;57.142;24.826;2023-02-21T16:40:40;-2.30;99.90
58309;DHT22;44117;57.142;24.826;2023-02-21T16:43:07;-2.30;99.90
58309;DHT22;44117;57.142;24.826;2023-02-21T16:45:41;-2.30;99.90
58309;DHT22;44117;57.142;24.826;2023-02-21T16:48:09;-2.40;99.90
58309;DHT22;44117;57.142;24.826;2023-02-21T16:50:40;-2.40;99.90
58309;DHT22;44117;57.142;24.826;2023-02-21T16:53:09;-2.40;99.90
58309;DHT22;44117;57.142;24.826;2023-02-21T16:55:38;-2.40;99.90
58309;DHT22;44117;57.142;24.826;2023-02-21T16:58:06;-2.40;99.90
58309;DHT22;44117;57.142;24.826;2023-02-21T17:00:33;-2.40;99.90
58309;DHT22;44117;57.142;24.826;2023-02-21T17:03:01;-2.40;99.90
58309;DHT22;44117;57.142;24.826;2023-02-21T17:05:28;-2.50;99.90
58309;DHT22;44117;57.142;24.826;2023-02-21T17:07:55;-2.40;99.90
58309;DHT22;44117;57.142;24.826;2023-02-21T17:10:24;-2.50;99.90
58309;DHT22;44117;57.142;24.826;2023-02-21T17:12:51;-2.50;99.90
58309;DHT22;44117;57.142;24.826;2023-02-21T17:15:18;-2.50;99.90
58309;DHT22;44117;57.142;24.826;2023-02-21T17:17:47;-2.50;99.90
58309;DHT22;44117;57.142;24.826;2023-02-21T17:20:19;-2.50;99.90
58309;DHT22;44117;57.142;24.826;2023-02-21T17:22:47;-2.50;99.90
58309;DHT22;44117;57.142;24.826;2023-02-21T17:25:14;-2.50;99.90
58309;DHT22;44117;57.142;24.826;2023-02-21T17:27:41;-2.50;99.90
58309;DHT22;44117;57.142;24.826;2023-02-21T17:30:08;-2.60;99.90
58309;DHT22;44117;57.142;24.826;2023-02-21T17:32:36;-2.60;99.90
58309;DHT22;44117;57.142;24.826;2023-02-21T17:35:03;-2.60;99.90
58309;DHT22;44117;57.142;24.826;2023-02-21T17:37:31;-2.60;99.90
58309;DHT22;44117;57.142;24.826;2023-02-21T17:39:58;-2.60;99.90
58309;DHT22;44117;57.142;24.826;2023-02-21T17:42:25;-2.60;99.90
58309;DHT22;44117;57.142;24.826;2023-02-21T17:44:52;-2.60;99.90
58309;DHT22;44117;57.142;24.826;2023-02-21T17:47:20;-2.60;99.90
58309;DHT22;44117;57.142;24.826;2023-02-21T17:49:47;-2.60;99.90
58309;DHT22;44117;57.142;24.826;2023-02-21T17:52:15;-2.60;99.90
58309;DHT22;44117;57.142;24.826;2023-02-21T17:54:43;-2.70;99.90
58309;DHT22;44117;57.142;24.826;2023-02-21T17:57:10;-2.70;99.90
58309;DHT22;44117;57.142;24.826;2023-02-21T17:59:37;-2.70;99.90
58309;DHT22;44117;57.142;24.826;2023-02-21T18:02:05;-2.80;99.90
58309;DHT22;44117;57.142;24.826;2023-02-21T18:04:34;-2.80;99.90
58309;DHT22;44117;57.142;24.826;2023-02-21T18:07:01;-2.80;99.90
58309;DHT22;44117;57.142;24.826;2023-02-21T18:09:28;-2.80;99.90
58309;DHT22;44117;57.142;24.826;2023-02-21T18:11:56;-2.80;99.90
58309;DHT22;44117;57.142;24.826;2023-02-21T18:14:24;-2.80;99.90
58309;DHT22;44117;57.142;24.826;2023-02-21T18:16:51;-2.80;99.90
58309;DHT22;44117;57.142;24.826;2023-02-21T18:19:22;-2.80;99.90
58309;DHT22;44117;57.142;24.826;2023-02-21T18:21:49;-2.80;99.90
58309;DHT22;44117;57.142;24.826;2023-02-21T18:24:17;-2.80;99.90